createdAt,value
2018-06-14T00:00:15.690Z,97118.35
2018-06-14T00:05:10.404Z,97108.69
2018-06-14T00:10:05.309Z,97110.94
2018-06-14T00:15:00.961Z,97117.73
2018-06-14T00:19:55.687Z,97111.56
2018-06-14T00:24:50.787Z,97111.42
2018-06-14T00:29:47.259Z,97106.02
2018-06-14T00:34:42.062Z,97100.65
2018-06-14T00:39:37.025Z,97104.98
2018-06-14T00:44:32.947Z,97107.16
2018-06-14T00:49:31.384Z,97111.94
2018-06-14T00:54:26.559Z,97108.69
2018-06-14T00:59:21.222Z,97111.59
2018-06-14T01:04:17.934Z,97109.66
2018-06-14T01:09:12.607Z,97105.57
2018-06-14T01:14:07.834Z,97102.13
2018-06-14T01:19:02.436Z,97100.49
2018-06-14T01:23:57.084Z,97101.41
2018-06-14T01:28:51.792Z,97096.39
2018-06-14T01:33:46.427Z,97093.05
2018-06-14T01:38:41.134Z,97092.44
2018-06-14T01:43:35.719Z,97088.73
2018-06-14T01:48:30.449Z,97094.50
2018-06-14T01:53:25.078Z,97086.63
2018-06-14T01:58:19.749Z,97086.15
2018-06-14T02:03:14.541Z,97083.84
2018-06-14T02:08:09.182Z,97085.97
2018-06-14T02:13:03.790Z,97071.38
2018-06-14T02:17:59.346Z,97070.70
2018-06-14T02:22:54.635Z,97065.13
2018-06-14T02:27:49.294Z,97052.83
2018-06-14T02:32:44.192Z,97055.75
2018-06-14T02:37:41.329Z,97049.23
2018-06-14T02:42:36.059Z,97053.02
2018-06-14T02:47:30.814Z,97053.91
2018-06-14T02:52:25.510Z,97060.38
2018-06-14T02:57:20.235Z,97061.00
2018-06-14T03:02:14.887Z,97048.44
2018-06-14T03:07:10.300Z,97045.95
2018-06-14T03:12:06.061Z,97036.41
2018-06-14T03:17:00.757Z,97036.53
2018-06-14T03:21:55.448Z,97035.21
2018-06-14T03:26:50.209Z,97037.59
2018-06-14T03:31:45.806Z,97042.47
2018-06-14T03:36:40.712Z,97038.92
2018-06-14T03:41:35.382Z,97029.73
2018-06-14T03:46:31.794Z,97040.12
2018-06-14T03:51:26.494Z,97043.58
2018-06-14T03:56:21.200Z,97051.00
2018-06-14T04:01:16.028Z,97051.02
2018-06-14T04:06:10.734Z,97050.16
2018-06-14T04:11:08.667Z,97056.83
2018-06-14T04:16:03.306Z,97051.34
2018-06-14T04:20:57.919Z,97049.30
2018-06-14T04:31:17.349Z,97057.64
2018-06-14T04:36:11.954Z,97057.49
2018-06-14T04:41:07.242Z,97052.18
2018-06-14T04:46:02.103Z,97054.15
2018-06-14T04:50:56.726Z,97057.94
2018-06-14T04:55:51.380Z,97057.86
2018-06-14T05:00:46.055Z,97052.13
2018-06-14T05:05:40.830Z,97049.40
2018-06-14T05:10:35.572Z,97046.91
2018-06-14T05:15:30.404Z,97053.39
2018-06-14T05:20:25.096Z,97049.78
2018-06-14T05:25:20.875Z,97049.05
2018-06-14T05:30:15.625Z,97045.11
2018-06-14T05:35:10.375Z,97054.86
2018-06-14T05:40:05.182Z,97059.16
2018-06-14T05:44:59.786Z,97062.03
2018-06-14T05:49:55.482Z,97057.09
2018-06-14T05:54:50.270Z,97051.98
2018-06-14T05:59:45.092Z,97052.48
2018-06-14T06:04:39.736Z,97056.80
2018-06-14T06:09:34.014Z,97063.23
2018-06-14T06:14:28.663Z,97054.75
2018-06-14T06:19:23.323Z,97058.88
2018-06-14T06:24:17.969Z,97056.70
2018-06-14T06:29:12.614Z,97050.69
2018-06-14T06:34:07.278Z,97051.77
2018-06-14T06:39:07.045Z,97057.88
2018-06-14T06:44:01.805Z,97063.59
2018-06-14T06:48:56.803Z,97070.22
2018-06-14T06:53:51.499Z,97072.30
2018-06-14T06:58:46.117Z,97066.73
2018-06-14T07:03:40.991Z,97071.05
2018-06-14T07:08:35.655Z,97075.44
2018-06-14T07:13:31.720Z,97069.47
2018-06-14T07:18:31.858Z,97066.33
2018-06-14T07:34:17.255Z,97062.66
2018-06-14T07:39:15.178Z,97064.70
2018-06-14T07:49:53.450Z,97069.81
2018-06-14T07:54:48.297Z,97061.65
2018-06-14T07:59:43.342Z,97060.51
2018-06-14T08:04:48.605Z,97053.77
2018-06-14T08:14:48.049Z,97057.06
2018-06-14T08:19:45.405Z,97045.00
2018-06-14T08:25:38.069Z,97052.72
2018-06-14T08:30:34.109Z,97042.34
2018-06-14T08:35:30.648Z,97044.47
2018-06-14T08:40:32.845Z,97038.67
2018-06-14T08:45:27.738Z,97043.18
2018-06-14T08:50:22.460Z,97044.91
2018-06-14T08:55:17.359Z,97044.30
2018-06-14T09:00:12.130Z,97047.78
2018-06-14T09:05:06.903Z,97045.19
2018-06-14T09:10:01.725Z,97049.14
2018-06-14T09:14:57.310Z,97054.52
2018-06-14T09:19:52.250Z,97049.05
2018-06-14T09:24:46.998Z,97041.53
2018-06-14T09:29:41.867Z,97042.69
2018-06-14T09:34:45.458Z,97042.61
2018-06-14T09:39:40.274Z,97035.03
2018-06-14T09:44:35.141Z,97038.88
2018-06-14T09:49:31.590Z,97031.73
2018-06-14T09:54:27.054Z,97036.04
2018-06-14T09:59:21.894Z,97041.02
2018-06-14T10:04:39.394Z,97041.09
2018-06-14T10:09:34.283Z,97047.64
2018-06-14T10:14:30.079Z,97042.61
2018-06-14T10:19:24.996Z,97049.19
2018-06-14T10:24:19.775Z,97048.69
2018-06-14T10:29:14.650Z,97048.69
2018-06-14T10:34:09.609Z,97042.03
2018-06-14T10:39:06.164Z,97034.42
2018-06-14T10:44:01.311Z,97026.34
2018-06-14T10:48:57.031Z,97040.48
2018-06-14T10:53:52.205Z,97032.08
2018-06-14T10:58:47.279Z,97030.23
2018-06-14T11:03:42.446Z,97031.80
2018-06-14T11:08:37.656Z,97020.95
2018-06-14T11:13:32.661Z,97014.61
2018-06-14T11:18:27.864Z,97027.13
2018-06-14T11:23:23.227Z,97025.16
2018-06-14T11:28:19.097Z,97028.53
2018-06-14T11:33:14.225Z,97026.16
2018-06-14T11:38:09.581Z,97025.42
2018-06-14T11:43:04.780Z,97024.22
2018-06-14T11:47:59.996Z,97015.62
2018-06-14T11:53:16.450Z,97009.41
2018-06-14T11:58:11.426Z,97006.55
2018-06-14T12:03:08.852Z,97003.78
2018-06-14T12:08:04.265Z,97001.88
2018-06-14T12:13:00.123Z,96991.64
2018-06-14T12:17:58.193Z,96997.00
2018-06-14T12:22:53.688Z,96991.20
2018-06-14T12:27:50.991Z,96986.95
2018-06-14T12:33:07.865Z,96978.20
2018-06-14T12:38:03.605Z,96976.17
2018-06-14T12:48:23.856Z,96971.55
2018-06-14T12:53:26.610Z,96960.57
2018-06-14T12:58:36.162Z,96958.55
2018-06-14T13:03:31.259Z,96951.78
2018-06-14T13:08:26.258Z,96955.64
2018-06-14T13:13:22.072Z,96956.19
2018-06-14T13:18:17.137Z,96950.73
2018-06-14T13:23:11.849Z,96952.17
2018-06-14T13:28:06.854Z,96956.70
2018-06-14T13:33:03.986Z,96951.97
2018-06-14T13:37:59.041Z,96952.84
2018-06-14T13:42:54.805Z,96953.40
2018-06-14T13:47:49.580Z,96943.16
2018-06-14T13:52:45.164Z,96951.42
2018-06-14T13:58:06.088Z,96946.53
2018-06-14T14:03:18.046Z,96946.34
2018-06-14T14:08:29.168Z,96948.82
2018-06-14T14:13:24.233Z,96941.39
2018-06-14T14:18:19.310Z,96929.78
2018-06-14T14:23:14.662Z,96931.60
2018-06-14T14:28:09.772Z,96931.95
2018-06-14T14:33:04.661Z,96934.20
2018-06-14T14:37:59.708Z,96929.87
2018-06-14T14:42:54.982Z,96930.53
2018-06-14T14:47:49.996Z,96932.02
2018-06-14T14:52:45.045Z,96923.30
2018-06-14T14:57:40.648Z,96924.75
2018-06-14T15:02:35.685Z,96928.91
2018-06-14T15:07:47.569Z,96922.80
2018-06-14T15:12:42.916Z,96926.86
2018-06-14T15:17:37.953Z,96927.88
2018-06-14T15:22:33.138Z,96924.19
2018-06-14T15:27:30.048Z,96918.03
2018-06-14T15:32:25.005Z,96914.16
2018-06-14T15:37:24.659Z,96915.68
2018-06-14T15:42:30.539Z,96914.38
2018-06-14T15:47:26.456Z,96905.02
2018-06-14T15:52:21.403Z,96906.03
2018-06-14T15:57:16.256Z,96904.45
2018-06-14T16:02:12.274Z,96899.29
2018-06-14T16:07:07.462Z,96900.14
2018-06-14T16:12:01.968Z,96898.65
2018-06-14T16:16:56.862Z,96897.67
2018-06-14T16:21:51.695Z,96894.72
2018-06-14T16:26:46.627Z,96899.16
2018-06-14T16:31:41.520Z,96895.23
2018-06-14T16:36:36.310Z,96883.20
2018-06-14T16:41:31.324Z,96890.87
2018-06-14T16:46:26.292Z,96893.19
2018-06-14T16:51:21.194Z,96891.67
2018-06-14T16:56:16.028Z,96895.51
2018-06-14T17:01:10.800Z,96891.03
2018-06-14T17:06:05.683Z,96894.77
2018-06-14T17:11:00.528Z,96895.41
2018-06-14T17:15:55.404Z,96894.00
2018-06-14T17:20:52.677Z,96890.11
2018-06-14T17:25:49.955Z,96898.53
2018-06-14T17:30:45.692Z,96906.18
2018-06-14T17:35:42.248Z,96900.98
2018-06-14T17:40:37.792Z,96908.88
2018-06-14T17:45:32.734Z,96910.21
2018-06-14T17:50:27.587Z,96909.45
2018-06-14T17:55:23.772Z,96909.86
2018-06-14T18:00:19.090Z,96908.44
2018-06-14T18:05:14.052Z,96919.48
2018-06-14T18:10:09.013Z,96923.00
2018-06-14T18:15:04.105Z,96925.90
2018-06-14T18:19:58.958Z,96938.08
2018-06-14T18:24:57.504Z,96942.23
2018-06-14T18:29:52.552Z,96934.95
2018-06-14T18:34:47.757Z,96939.72
2018-06-14T18:39:42.895Z,96945.17
2018-06-14T18:48:10.758Z,96950.94
2018-06-14T18:53:07.349Z,96966.66
2018-06-14T18:58:02.349Z,96970.95
2018-06-14T19:02:57.388Z,96981.23
2018-06-14T19:07:52.597Z,96985.52
2018-06-14T19:12:51.225Z,96987.47
2018-06-14T19:20:19.333Z,96982.22
2018-06-14T19:37:22.345Z,97014.72
2018-06-14T19:42:26.906Z,97015.78
2018-06-14T19:47:44.995Z,97031.39
2018-06-14T19:57:31.502Z,97034.87
2018-06-14T20:02:29.057Z,97054.28
2018-06-14T20:17:54.528Z,97064.78
2018-06-14T20:22:49.462Z,97070.12
2018-06-14T20:27:44.248Z,97072.38
2018-06-14T20:32:38.983Z,97073.73
2018-06-14T20:37:35.314Z,97075.03
2018-06-14T20:42:30.141Z,97084.00
2018-06-14T20:47:24.808Z,97093.21
2018-06-14T20:52:20.230Z,97095.94
2018-06-14T20:57:15.628Z,97097.85
2018-06-14T21:02:10.340Z,97101.02
2018-06-14T21:07:05.212Z,97109.20
2018-06-14T21:12:00.086Z,97115.66
2018-06-14T21:16:54.835Z,97105.33
2018-06-14T21:21:49.550Z,97106.49
2018-06-14T21:26:44.443Z,97112.27
2018-06-14T21:31:39.184Z,97105.98
2018-06-14T21:36:34.915Z,97114.13
2018-06-14T21:41:34.540Z,97123.88
2018-06-14T21:46:29.655Z,97128.58
2018-06-14T21:51:48.420Z,97137.34
2018-06-14T21:56:45.160Z,97135.17
2018-06-14T22:01:40.019Z,97137.90
2018-06-14T22:06:34.701Z,97131.80
2018-06-14T22:11:29.557Z,97127.92
2018-06-14T22:16:24.577Z,97127.45
2018-06-14T22:21:19.503Z,97128.85
2018-06-14T22:26:14.310Z,97135.95
2018-06-14T22:31:09.014Z,97133.92
2018-06-14T22:36:07.997Z,97136.73
2018-06-14T22:41:03.111Z,97143.14
2018-06-14T22:45:57.834Z,97138.62
2018-06-14T22:51:09.154Z,97129.86
2018-06-14T22:56:03.645Z,97129.48
2018-06-14T23:01:38.115Z,97122.28
2018-06-14T23:06:33.166Z,97116.59
2018-06-14T23:11:28.007Z,97109.27
2018-06-14T23:16:22.832Z,97110.19
2018-06-14T23:21:17.704Z,97119.34
2018-06-14T23:26:12.590Z,97119.75
2018-06-14T23:31:08.309Z,97115.39
2018-06-14T23:36:03.040Z,97108.64
2018-06-14T23:40:57.781Z,97117.60
2018-06-14T23:45:53.544Z,97117.03
2018-06-14T23:50:48.324Z,97114.48
2018-06-14T23:55:43.269Z,97113.08
